메인 페이지
METAR-TAF:

METAR-TAF

공항 :

반, 터키

위도: 38-27N, 경도: 043-19E, 고도: 1667m

현재 날씨관측

예보는 23분 전, 08:50시(UTC)에 발표되었습니다.
동북동5kt
온도 3°C
습도 87%
기압 1017 hPa
시정: 8000m
고도 1200ft 상공 구름 조금
고도 2500ft 상공 구름 보통
고도 7000ft 상공 구름 많음

METAR: LTCI 090850Z 07005KT 8000 FEW012 SCT025 BKN070 03/01 Q1017 RESN R03/////58 TEMPO 3200 BR

시각: 12:13 (09:13 UTC)

예보

예보는 1 시간 18분 전, 07:55시(UTC)에 발표되었습니다.
예보 대상 시간: 09일 09시부터 09일 18시까지 (UTC)
여러 방향의 바람 2kt
시정: 6000m
고도 3000ft 상공 구름 보통
고도 7000ft 상공 구름 많음
일시적
09일 09시부터 09일 12시까지 (UTC)
시정: 3200m
고도 1000ft 상공 구름 보통
고도 2500ft 상공 구름 많음
약한눈, 박무

TAF: LTCI 090755Z 0909/0918 VRB02KT 6000 SCT030 BKN070 TEMPO 0909/0912 3200 -SN BR SCT010 BKN025

4,000개 이상의 공항 관측 자료 및 예보 (METAR 및 TAF 보고).

지도상에서 검색 가능한 기상관측소가 노란 점과 빨간 점으로 표시되어 있습니다.

기상관측소 명을 보려면 표시 위로 마우스를 이동하세요.

날씨 관측과 예보를 보려면 클릭하세요.

지도 변경 : 확대하려면 엑스 표시가 있는 녹색 버튼, 축소하려면 빼기 표시가 있는 녹색 버튼, 다음 페이지의 지도를 보려면 녹색 화살표를 클릭하세요.


METAR-TAF: